createdAt,value
2023-04-16T00:00:43.696Z,9.60
2023-04-16T00:03:29.197Z,9.63
2023-04-16T00:06:14.224Z,10.05
2023-04-16T00:08:59.254Z,9.75
2023-04-16T00:11:44.592Z,9.82
2023-04-16T00:14:30.026Z,8.35
2023-04-16T00:17:15.522Z,9.75
2023-04-16T00:20:00.520Z,8.07
2023-04-16T00:22:46.050Z,8.05
2023-04-16T00:25:31.347Z,7.70
2023-04-16T00:28:16.472Z,7.75
2023-04-16T00:31:01.763Z,8.00
2023-04-16T00:33:46.587Z,8.10
2023-04-16T00:36:31.692Z,9.95
2023-04-16T00:39:16.804Z,8.95
2023-04-16T00:42:01.871Z,9.35
2023-04-16T00:44:47.140Z,9.20
2023-04-16T00:47:32.334Z,9.80
2023-04-16T00:50:17.738Z,8.65
2023-04-16T00:53:03.922Z,9.27
2023-04-16T00:55:49.097Z,9.90
2023-04-16T00:58:35.577Z,10.02
2023-04-16T01:01:20.606Z,10.82
2023-04-16T01:04:07.128Z,11.40
2023-04-16T01:06:52.582Z,10.98
2023-04-16T01:09:37.661Z,10.27
2023-04-16T01:12:22.709Z,10.77
2023-04-16T01:15:08.612Z,10.48
2023-04-16T01:17:53.645Z,10.90
2023-04-16T01:20:38.642Z,11.43
2023-04-16T01:23:23.769Z,11.90
2023-04-16T01:26:09.017Z,11.90
2023-04-16T01:28:54.343Z,11.48
2023-04-16T01:31:39.458Z,11.27
2023-04-16T01:34:24.641Z,10.10
2023-04-16T01:37:09.599Z,8.48
2023-04-16T01:39:54.660Z,9.93
2023-04-16T01:42:39.934Z,10.65
2023-04-16T01:45:25.425Z,9.20
2023-04-16T01:48:10.685Z,7.00
2023-04-16T01:50:55.759Z,6.50
2023-04-16T01:53:41.021Z,6.32
2023-04-16T01:56:26.448Z,6.53
2023-04-16T01:59:12.288Z,7.18
2023-04-16T02:01:59.626Z,6.95
2023-04-16T02:04:45.932Z,7.03
2023-04-16T02:07:31.760Z,6.80
2023-04-16T02:10:17.060Z,7.38
2023-04-16T02:13:01.831Z,6.47
2023-04-16T02:15:47.744Z,6.95
2023-04-16T02:18:32.812Z,7.47
2023-04-16T02:21:17.806Z,7.95
2023-04-16T02:24:03.016Z,9.20
2023-04-16T02:26:48.277Z,9.32
2023-04-16T02:29:33.352Z,8.95
2023-04-16T02:32:18.408Z,10.18
2023-04-16T02:35:04.103Z,9.63
2023-04-16T02:37:49.144Z,9.60
2023-04-16T02:40:34.182Z,9.88
2023-04-16T02:43:19.469Z,8.52
2023-04-16T02:46:04.529Z,7.10
2023-04-16T02:48:49.958Z,7.13
2023-04-16T02:51:35.175Z,5.95
2023-04-16T02:54:20.413Z,6.55
2023-04-16T02:57:06.143Z,6.25
2023-04-16T02:59:51.034Z,6.32
2023-04-16T03:02:36.249Z,5.70
2023-04-16T03:05:21.572Z,6.45
2023-04-16T03:08:07.004Z,7.60
2023-04-16T03:10:52.006Z,7.97
2023-04-16T03:13:37.090Z,7.22
2023-04-16T03:16:22.425Z,7.90
2023-04-16T03:19:07.846Z,8.30
2023-04-16T03:21:53.406Z,8.68
2023-04-16T03:24:38.567Z,9.52
2023-04-16T03:27:23.575Z,9.80
2023-04-16T03:30:11.178Z,9.82
2023-04-16T03:32:56.291Z,9.50
2023-04-16T03:35:41.272Z,9.85
2023-04-16T03:38:26.617Z,10.05
2023-04-16T03:41:11.763Z,10.45
2023-04-16T03:43:56.949Z,10.68
2023-04-16T03:46:41.857Z,10.68
2023-04-16T03:49:26.962Z,10.65
2023-04-16T03:52:12.508Z,10.25
2023-04-16T03:54:57.707Z,10.52
2023-04-16T03:57:42.675Z,10.52
2023-04-16T04:00:27.645Z,10.60
2023-04-16T04:03:13.125Z,10.18
2023-04-16T04:05:58.586Z,9.63
2023-04-16T04:08:43.709Z,9.82
2023-04-16T04:11:28.640Z,9.95
2023-04-16T04:14:13.640Z,10.82
2023-04-16T04:16:58.661Z,10.73
2023-04-16T04:19:54.245Z,11.45
2023-04-16T04:22:46.312Z,10.88
2023-04-16T04:25:31.510Z,11.05
2023-04-16T04:28:16.726Z,10.57
2023-04-16T04:31:02.289Z,12.80
2023-04-16T04:33:47.572Z,12.02
2023-04-16T04:36:32.507Z,11.38
2023-04-16T04:39:17.674Z,12.32
2023-04-16T04:42:03.244Z,12.15
2023-04-16T04:44:48.537Z,13.00
2023-04-16T04:47:33.744Z,12.40
2023-04-16T04:50:19.016Z,12.88
2023-04-16T04:53:09.814Z,12.57
2023-04-16T04:55:57.513Z,12.60
2023-04-16T04:58:51.372Z,11.95
2023-04-16T05:01:36.427Z,12.57
2023-04-16T05:04:21.333Z,12.48
2023-04-16T05:07:07.186Z,11.35
2023-04-16T05:09:52.183Z,11.38
2023-04-16T05:12:37.181Z,12.02
2023-04-16T05:15:22.571Z,11.43
2023-04-16T05:18:07.760Z,12.00
2023-04-16T05:20:52.766Z,12.30
2023-04-16T05:23:37.761Z,11.73
2023-04-16T05:26:23.453Z,11.45
2023-04-16T05:29:08.653Z,12.43
2023-04-16T05:31:54.046Z,13.00
2023-04-16T05:34:39.318Z,11.80
2023-04-16T05:37:24.319Z,12.30
2023-04-16T05:40:09.735Z,12.45
2023-04-16T05:42:54.476Z,11.95
2023-04-16T05:45:40.806Z,12.32
2023-04-16T05:48:25.795Z,11.85
2023-04-16T05:51:10.701Z,11.75
2023-04-16T05:53:55.746Z,12.02
2023-04-16T05:56:41.009Z,11.65
2023-04-16T05:59:26.518Z,13.10
2023-04-16T06:02:11.750Z,12.10
2023-04-16T06:04:57.289Z,11.50
2023-04-16T06:07:42.578Z,11.15
2023-04-16T06:10:28.089Z,11.43
2023-04-16T06:13:13.704Z,11.07
2023-04-16T06:15:58.519Z,11.48
2023-04-16T06:18:43.534Z,11.10
2023-04-16T06:21:28.891Z,12.73
2023-04-16T06:24:13.958Z,11.85
2023-04-16T06:26:59.041Z,11.50
2023-04-16T06:29:44.518Z,10.45
2023-04-16T06:32:30.700Z,11.82
2023-04-16T06:35:15.981Z,11.13
2023-04-16T06:38:00.906Z,11.50
2023-04-16T06:40:46.104Z,11.38
2023-04-16T06:43:33.415Z,11.38
2023-04-16T06:46:18.399Z,11.20
2023-04-16T06:49:03.236Z,11.38
2023-04-16T06:51:48.347Z,11.35
2023-04-16T06:54:34.146Z,11.38
2023-04-16T06:57:19.061Z,13.02
2023-04-16T07:00:05.115Z,11.57
2023-04-16T07:02:50.560Z,12.20
2023-04-16T07:05:35.693Z,11.70
2023-04-16T07:08:20.740Z,12.40
2023-04-16T07:11:05.963Z,12.82
2023-04-16T07:13:51.258Z,12.18
2023-04-16T07:16:37.667Z,14.82
2023-04-16T07:19:23.061Z,14.93
2023-04-16T07:22:08.196Z,12.90
2023-04-16T07:24:53.429Z,12.35
2023-04-16T07:27:38.357Z,12.57
2023-04-16T07:30:23.305Z,12.70
2023-04-16T07:33:08.480Z,13.10
2023-04-16T07:35:53.694Z,14.43
2023-04-16T07:38:38.904Z,13.85
2023-04-16T07:41:23.944Z,15.48
2023-04-16T07:44:09.511Z,15.25
2023-04-16T07:46:54.436Z,14.77
2023-04-16T07:49:39.837Z,13.80
2023-04-16T07:52:25.143Z,14.52
2023-04-16T07:55:10.353Z,15.07
2023-04-16T07:57:55.218Z,14.13
2023-04-16T08:00:40.308Z,12.85
2023-04-16T08:03:25.927Z,12.20
2023-04-16T08:06:11.507Z,12.57
2023-04-16T08:08:56.530Z,12.05
2023-04-16T08:11:41.711Z,12.90
2023-04-16T08:14:26.888Z,13.85
2023-04-16T08:17:18.855Z,12.30
2023-04-16T08:20:04.869Z,12.40
2023-04-16T08:22:50.224Z,11.77
2023-04-16T08:25:35.461Z,11.65
2023-04-16T08:28:20.820Z,10.60
2023-04-16T08:31:06.146Z,10.88
2023-04-16T08:33:51.399Z,10.55
2023-04-16T08:36:36.148Z,10.93
2023-04-16T08:39:21.673Z,9.50
2023-04-16T08:42:21.353Z,9.18
2023-04-16T08:45:16.033Z,7.53
2023-04-16T08:48:01.951Z,6.70
2023-04-16T08:50:52.292Z,6.05
2023-04-16T08:54:05.411Z,6.60
2023-04-16T08:56:51.414Z,6.63
2023-04-16T08:59:37.216Z,6.28
2023-04-16T09:02:22.605Z,6.35
2023-04-16T09:05:10.419Z,6.07
2023-04-16T09:07:56.057Z,5.72
2023-04-16T09:10:41.112Z,6.53
2023-04-16T09:13:26.891Z,6.68
2023-04-16T09:16:12.945Z,6.18
2023-04-16T09:18:57.998Z,6.47
2023-04-16T09:21:48.189Z,5.45
2023-04-16T09:24:34.273Z,4.97
2023-04-16T09:27:20.079Z,5.10
2023-04-16T09:30:23.552Z,4.93
2023-04-16T09:33:22.001Z,4.80
2023-04-16T09:36:07.670Z,4.82
2023-04-16T09:38:54.912Z,4.90
2023-04-16T09:41:41.230Z,4.72
2023-04-16T09:44:38.444Z,5.53
2023-04-16T09:47:25.965Z,4.80
2023-04-16T09:50:18.931Z,4.70
2023-04-16T09:53:04.543Z,4.15
2023-04-16T09:55:49.761Z,4.25
2023-04-16T09:58:38.463Z,4.45
2023-04-16T10:01:23.934Z,4.50
2023-04-16T10:04:09.236Z,4.38
2023-04-16T10:07:05.441Z,4.13
2023-04-16T10:09:52.478Z,3.97
2023-04-16T10:12:37.698Z,4.00
2023-04-16T10:15:23.292Z,4.00
2023-04-16T10:18:08.386Z,3.38
2023-04-16T10:20:53.815Z,3.88
2023-04-16T10:23:39.993Z,4.18
2023-04-16T10:26:25.348Z,3.75
2023-04-16T10:29:12.935Z,3.92
2023-04-16T10:31:58.887Z,3.83
2023-04-16T10:34:44.372Z,3.30
2023-04-16T10:37:33.091Z,3.75
2023-04-16T10:40:26.344Z,3.65
2023-04-16T10:43:17.661Z,3.47
2023-04-16T10:46:21.897Z,3.28
2023-04-16T10:49:27.112Z,3.40
2023-04-16T10:52:13.839Z,2.97
2023-04-16T10:55:00.223Z,3.70
2023-04-16T10:57:49.812Z,3.15
2023-04-16T11:00:49.702Z,3.20
2023-04-16T11:03:34.806Z,2.45
2023-04-16T11:06:28.100Z,2.97
2023-04-16T11:09:42.126Z,2.75
2023-04-16T11:12:34.861Z,2.45
2023-04-16T11:15:20.256Z,3.00
2023-04-16T11:18:06.971Z,2.60
2023-04-16T11:20:52.642Z,2.67
2023-04-16T11:23:51.883Z,2.42
2023-04-16T11:26:36.870Z,2.50
2023-04-16T11:29:21.869Z,2.40
2023-04-16T11:32:07.124Z,2.20
2023-04-16T11:34:52.251Z,1.88
2023-04-16T11:37:38.730Z,2.00
2023-04-16T11:40:24.260Z,1.70
2023-04-16T11:43:16.640Z,1.92
2023-04-16T11:46:20.609Z,2.03
2023-04-16T11:49:12.421Z,1.70
2023-04-16T11:51:58.639Z,2.30
2023-04-16T11:54:50.339Z,2.47
2023-04-16T11:57:35.536Z,1.92
2023-04-16T12:00:22.525Z,2.45
2023-04-16T12:03:10.865Z,2.30
2023-04-16T12:06:08.047Z,2.30
2023-04-16T12:08:53.364Z,2.60
2023-04-16T12:11:42.334Z,2.83
2023-04-16T12:14:28.395Z,2.23
2023-04-16T12:17:23.542Z,2.65
2023-04-16T12:20:09.735Z,2.63
2023-04-16T12:22:57.028Z,2.10
2023-04-16T12:25:42.946Z,2.15
2023-04-16T12:28:33.141Z,2.40
2023-04-16T12:31:20.413Z,2.50
2023-04-16T12:34:05.834Z,3.08
2023-04-16T12:37:08.010Z,2.45
2023-04-16T12:39:54.336Z,3.03
2023-04-16T12:42:39.502Z,2.75
2023-04-16T12:45:25.151Z,2.25
2023-04-16T12:48:10.403Z,2.35
2023-04-16T12:50:55.711Z,2.17
2023-04-16T12:53:40.953Z,2.53
2023-04-16T12:56:26.233Z,1.60
2023-04-16T12:59:11.567Z,1.83
2023-04-16T13:01:57.043Z,1.88
2023-04-16T13:04:42.472Z,1.90
2023-04-16T13:07:28.230Z,2.10
2023-04-16T13:10:13.819Z,1.80
2023-04-16T13:12:58.627Z,2.00
2023-04-16T13:15:43.633Z,1.77
2023-04-16T13:18:28.690Z,1.65
2023-04-16T13:21:13.588Z,1.50
2023-04-16T13:23:59.316Z,1.85
2023-04-16T13:26:44.933Z,1.48
2023-04-16T13:29:30.076Z,1.70
2023-04-16T13:32:15.456Z,1.95
2023-04-16T13:35:00.199Z,1.83
2023-04-16T13:37:45.326Z,1.77
2023-04-16T13:40:30.843Z,1.73
2023-04-16T13:43:16.602Z,1.55
2023-04-16T13:46:01.962Z,1.60
2023-04-16T13:48:47.295Z,1.40
2023-04-16T13:51:32.814Z,1.50
2023-04-16T13:54:17.780Z,1.58
2023-04-16T13:57:02.958Z,1.58
2023-04-16T13:59:48.339Z,1.20
2023-04-16T14:02:33.422Z,1.45
2023-04-16T14:05:19.481Z,1.20
2023-04-16T14:08:04.352Z,1.20
2023-04-16T14:10:49.724Z,1.55
2023-04-16T14:13:34.839Z,2.00
2023-04-16T14:16:20.043Z,1.52
2023-04-16T14:19:05.423Z,1.13
2023-04-16T14:21:50.492Z,1.30
2023-04-16T14:24:35.834Z,1.38
2023-04-16T14:27:21.084Z,2.00
2023-04-16T14:30:07.102Z,1.20
2023-04-16T14:32:52.247Z,1.23
2023-04-16T14:35:37.408Z,1.50
2023-04-16T14:38:22.904Z,1.23
2023-04-16T14:41:08.112Z,0.93
2023-04-16T14:43:52.949Z,1.13
2023-04-16T14:46:38.517Z,1.20
2023-04-16T14:49:24.096Z,1.15
2023-04-16T14:52:09.201Z,1.17
2023-04-16T14:54:57.909Z,2.38
2023-04-16T14:57:42.870Z,1.00
2023-04-16T15:00:28.460Z,0.90
2023-04-16T15:03:13.876Z,1.02
2023-04-16T15:05:59.407Z,1.10
2023-04-16T15:08:44.658Z,0.80
2023-04-16T15:11:30.125Z,0.82
2023-04-16T15:14:15.295Z,0.82
2023-04-16T15:17:00.811Z,0.82
2023-04-16T15:19:46.477Z,1.02
2023-04-16T15:22:31.674Z,1.05
2023-04-16T15:25:16.811Z,1.00
2023-04-16T15:28:02.637Z,0.80
2023-04-16T15:30:47.915Z,0.85
2023-04-16T15:33:32.922Z,1.42
2023-04-16T15:36:18.054Z,1.15
2023-04-16T15:39:03.506Z,1.88
2023-04-16T15:42:00.783Z,1.60
2023-04-16T15:44:46.894Z,1.55
2023-04-16T15:47:32.024Z,1.50
2023-04-16T15:50:17.912Z,1.83
2023-04-16T15:53:03.354Z,2.00
2023-04-16T15:55:52.373Z,2.20
2023-04-16T15:58:37.667Z,2.45
2023-04-16T16:01:22.864Z,2.10
2023-04-16T16:04:08.348Z,2.25
2023-04-16T16:06:54.024Z,2.67
2023-04-16T16:09:38.918Z,2.83
2023-04-16T16:12:23.967Z,3.42
2023-04-16T16:15:10.917Z,2.65
2023-04-16T16:17:57.802Z,2.75
2023-04-16T16:20:43.601Z,2.58
2023-04-16T16:23:28.773Z,2.42
2023-04-16T16:26:13.786Z,2.13
2023-04-16T16:28:58.552Z,2.63
2023-04-16T16:31:43.628Z,2.67
2023-04-16T16:34:28.649Z,2.83
2023-04-16T16:37:13.567Z,2.38
2023-04-16T16:39:58.625Z,2.38
2023-04-16T16:42:43.613Z,2.58
2023-04-16T16:45:30.524Z,2.20
2023-04-16T16:48:15.494Z,1.70
2023-04-16T16:51:01.061Z,2.08
2023-04-16T16:53:46.381Z,2.08
2023-04-16T16:56:31.829Z,1.40
2023-04-16T16:59:17.041Z,1.73
2023-04-16T17:02:02.334Z,2.00
2023-04-16T17:04:47.308Z,2.25
2023-04-16T17:07:32.927Z,2.53
2023-04-16T17:10:21.011Z,2.10
2023-04-16T17:13:05.979Z,2.00
2023-04-16T17:15:51.281Z,1.02
2023-04-16T17:18:36.665Z,0.95
2023-04-16T17:21:21.669Z,1.17
2023-04-16T17:24:06.744Z,0.98
2023-04-16T17:26:51.922Z,1.83
2023-04-16T17:29:36.849Z,2.05
2023-04-16T17:32:21.931Z,2.40
2023-04-16T17:35:09.312Z,2.90
2023-04-16T17:37:54.375Z,2.50
2023-04-16T17:40:39.728Z,2.50
2023-04-16T17:43:24.699Z,2.35
2023-04-16T17:46:11.642Z,2.15
2023-04-16T17:48:56.753Z,2.30
2023-04-16T17:51:44.287Z,2.40
2023-04-16T17:54:29.580Z,1.88
2023-04-16T17:57:14.978Z,1.65
2023-04-16T18:00:00.023Z,2.05
2023-04-16T18:02:45.387Z,2.38
2023-04-16T18:05:30.855Z,1.90
2023-04-16T18:08:16.290Z,1.67
2023-04-16T18:11:06.295Z,1.45
2023-04-16T18:13:53.650Z,1.58
2023-04-16T18:16:38.837Z,1.10
2023-04-16T18:19:24.044Z,1.40
2023-04-16T18:22:09.345Z,1.67
2023-04-16T18:24:54.924Z,1.40
2023-04-16T18:27:39.901Z,1.52
2023-04-16T18:30:26.735Z,1.42
2023-04-16T18:33:38.863Z,4.75
2023-04-16T18:36:17.272Z,19.83
2023-04-16T18:39:02.802Z,22.65
2023-04-16T18:41:48.037Z,20.92
2023-04-16T18:44:33.379Z,33.08
2023-04-16T18:47:18.895Z,30.60
2023-04-16T18:50:04.358Z,15.02
2023-04-16T18:52:49.484Z,22.40
2023-04-16T18:55:34.416Z,9.70
2023-04-16T18:58:19.436Z,21.50
2023-04-16T19:01:04.859Z,103.70
2023-04-16T19:03:50.504Z,113.70
2023-04-16T19:06:44.946Z,63.40
2023-04-16T19:09:29.838Z,43.50
2023-04-16T19:12:14.739Z,29.85
2023-04-16T19:14:59.946Z,19.25
2023-04-16T19:17:45.060Z,29.27
2023-04-16T19:20:29.974Z,10.55
2023-04-16T19:23:15.323Z,7.18
2023-04-16T19:26:01.435Z,4.80
2023-04-16T19:28:46.545Z,11.85
2023-04-16T19:31:31.725Z,2.00
2023-04-16T19:34:16.988Z,14.95
2023-04-16T19:37:01.881Z,33.80
2023-04-16T19:39:46.826Z,5.53
2023-04-16T19:42:32.227Z,6.70
2023-04-16T19:45:18.334Z,3.20
2023-04-16T19:48:03.781Z,1.83
2023-04-16T19:50:49.197Z,1.67
2023-04-16T19:53:34.699Z,2.10
2023-04-16T19:56:20.133Z,4.57
2023-04-16T19:59:04.902Z,1.98
2023-04-16T20:01:50.013Z,1.92
2023-04-16T20:04:35.664Z,2.08
2023-04-16T20:07:21.280Z,2.67
2023-04-16T20:10:06.874Z,4.43
2023-04-16T20:12:51.876Z,3.78
2023-04-16T20:15:37.381Z,3.15
2023-04-16T20:18:22.377Z,2.50
2023-04-16T20:21:08.083Z,3.05
2023-04-16T20:23:53.306Z,2.45
2023-04-16T20:26:38.414Z,2.42
2023-04-16T20:29:23.741Z,2.10
2023-04-16T20:32:08.983Z,2.28
2023-04-16T20:34:55.193Z,2.05
2023-04-16T20:37:42.118Z,1.50
2023-04-16T20:40:30.285Z,2.20
2023-04-16T20:43:18.702Z,1.95
2023-04-16T20:46:04.961Z,1.60
2023-04-16T20:48:51.202Z,1.88
2023-04-16T20:51:38.393Z,1.98
2023-04-16T20:54:23.698Z,1.80
2023-04-16T20:57:08.718Z,1.75
2023-04-16T20:59:53.945Z,1.98
2023-04-16T21:02:39.379Z,1.60
2023-04-16T21:05:26.501Z,1.70
2023-04-16T21:08:11.824Z,5.72
2023-04-16T21:10:57.060Z,7.05
2023-04-16T21:13:42.413Z,8.35
2023-04-16T21:16:27.391Z,8.73
2023-04-16T21:19:12.757Z,10.07
2023-04-16T21:21:58.356Z,10.48
2023-04-16T21:24:43.586Z,11.00
2023-04-16T21:27:28.646Z,10.60
2023-04-16T21:30:14.120Z,10.60
2023-04-16T21:32:59.352Z,10.90
2023-04-16T21:35:44.419Z,12.00
2023-04-16T21:38:29.631Z,12.70
2023-04-16T21:41:14.702Z,12.07
2023-04-16T21:43:59.835Z,12.20
2023-04-16T21:46:45.192Z,12.20
2023-04-16T21:49:30.391Z,12.00
2023-04-16T21:52:18.313Z,12.55
2023-04-16T21:55:03.934Z,12.85
2023-04-16T21:57:48.794Z,11.13
2023-04-16T22:00:35.045Z,12.77
2023-04-16T22:03:26.273Z,12.45
2023-04-16T22:06:14.114Z,13.68
2023-04-16T22:08:59.027Z,12.55
2023-04-16T22:11:46.513Z,12.75
2023-04-16T22:14:31.937Z,13.07
2023-04-16T22:17:17.162Z,12.93
2023-04-16T22:20:06.878Z,13.45
2023-04-16T22:22:57.579Z,13.40
2023-04-16T22:25:42.647Z,13.50
2023-04-16T22:28:28.072Z,13.52
2023-04-16T22:31:13.389Z,14.57
2023-04-16T22:33:58.451Z,14.25
2023-04-16T22:36:43.634Z,14.23
2023-04-16T22:39:29.808Z,13.65
2023-04-16T22:42:15.092Z,14.45
2023-04-16T22:45:00.074Z,15.23
2023-04-16T22:47:45.098Z,16.17
2023-04-16T22:50:31.225Z,14.15
2023-04-16T22:53:16.450Z,15.88
2023-04-16T22:56:01.799Z,16.55
2023-04-16T22:58:46.696Z,16.45
2023-04-16T23:01:32.983Z,15.98
2023-04-16T23:04:18.696Z,16.70
2023-04-16T23:07:03.842Z,16.55
2023-04-16T23:09:48.831Z,16.33
2023-04-16T23:12:33.849Z,16.13
2023-04-16T23:15:19.110Z,17.40
2023-04-16T23:18:04.370Z,18.15
2023-04-16T23:20:53.626Z,17.42
2023-04-16T23:23:38.621Z,17.10
2023-04-16T23:26:23.695Z,17.98
2023-04-16T23:29:09.028Z,18.52
2023-04-16T23:31:54.629Z,17.55
2023-04-16T23:34:39.657Z,18.15
2023-04-16T23:37:24.614Z,19.05
2023-04-16T23:40:10.303Z,18.48
2023-04-16T23:42:55.348Z,20.00
2023-04-16T23:45:40.303Z,19.60
2023-04-16T23:48:25.414Z,20.48
2023-04-16T23:51:10.621Z,20.05
2023-04-16T23:53:55.745Z,20.55
2023-04-16T23:56:41.422Z,21.20
2023-04-16T23:59:26.389Z,21.23
